sensor_id;sensor_type;location;lat;lon;timestamp;temperature;humidity
20858;DHT22;10589;53.636;10.012;2023-04-05T03:46:57;-1.80;99.90
20858;DHT22;10589;53.636;10.012;2023-04-05T03:49:23;-1.90;99.90
20858;DHT22;10589;53.636;10.012;2023-04-05T03:51:49;-2.00;99.90
20858;DHT22;10589;53.636;10.012;2023-04-05T03:54:14;-2.00;99.90
20858;DHT22;10589;53.636;10.012;2023-04-05T03:56:40;-2.00;99.90
20858;DHT22;10589;53.636;10.012;2023-04-05T03:59:06;-1.90;99.90
20858;DHT22;10589;53.636;10.012;2023-04-05T04:01:31;-1.80;99.90
20858;DHT22;10589;53.636;10.012;2023-04-05T04:03:57;-1.80;99.90
20858;DHT22;10589;53.636;10.012;2023-04-05T04:06:25;-1.80;99.90
20858;DHT22;10589;53.636;10.012;2023-04-05T04:08:51;-1.80;99.90
20858;DHT22;10589;53.636;10.012;2023-04-05T04:11:16;-1.90;99.90
20858;DHT22;10589;53.636;10.012;2023-04-05T04:13:42;-1.90;99.90
20858;DHT22;10589;53.636;10.012;2023-04-05T04:16:07;-1.90;99.90
20858;DHT22;10589;53.636;10.012;2023-04-05T04:18:33;-1.80;99.90
20858;DHT22;10589;53.636;10.012;2023-04-05T04:21:01;-1.90;99.90
20858;DHT22;10589;53.636;10.012;2023-04-05T04:23:33;-1.90;99.90
20858;DHT22;10589;53.636;10.012;2023-04-05T04:26:03;-1.90;99.90
20858;DHT22;10589;53.636;10.012;2023-04-05T04:28:28;-1.90;99.90
20858;DHT22;10589;53.636;10.012;2023-04-05T04:30:54;-1.90;99.90
20858;DHT22;10589;53.636;10.012;2023-04-05T04:33:19;-1.80;99.90
20858;DHT22;10589;53.636;10.012;2023-04-05T04:35:45;-1.80;99.90
20858;DHT22;10589;53.636;10.012;2023-04-05T04:38:11;-1.70;99.90
20858;DHT22;10589;53.636;10.012;2023-04-05T04:40:43;-1.70;99.90
20858;DHT22;10589;53.636;10.012;2023-04-05T04:43:15;-1.70;99.90
20858;DHT22;10589;53.636;10.012;2023-04-05T04:45:48;-1.60;99.90
20858;DHT22;10589;53.636;10.012;2023-04-05T04:48:15;-1.40;99.90
20858;DHT22;10589;53.636;10.012;2023-04-05T04:50:47;-1.40;99.90
20858;DHT22;10589;53.636;10.012;2023-04-05T04:53:14;-1.30;99.90
20858;DHT22;10589;53.636;10.012;2023-04-05T04:55:43;-1.30;99.90
20858;DHT22;10589;53.636;10.012;2023-04-05T04:58:09;-1.20;99.90
20858;DHT22;10589;53.636;10.012;2023-04-05T05:00:42;-1.20;99.90
20858;DHT22;10589;53.636;10.012;2023-04-05T05:03:09;-1.20;99.90
20858;DHT22;10589;53.636;10.012;2023-04-05T05:05:41;-1.10;99.90
20858;DHT22;10589;53.636;10.012;2023-04-05T05:08:06;-1.10;99.90
20858;DHT22;10589;53.636;10.012;2023-04-05T05:10:32;-1.10;99.90
20858;DHT22;10589;53.636;10.012;2023-04-05T05:12:57;-1.10;99.90
20858;DHT22;10589;53.636;10.012;2023-04-05T05:15:23;-1.20;99.90
20858;DHT22;10589;53.636;10.012;2023-04-05T05:17:49;-1.20;99.90
20858;DHT22;10589;53.636;10.012;2023-04-05T05:20:17;-1.10;99.90
20858;DHT22;10589;53.636;10.012;2023-04-05T05:22:43;-1.00;99.90
20858;DHT22;10589;53.636;10.012;2023-04-05T05:25:10;-0.90;99.90
20858;DHT22;10589;53.636;10.012;2023-04-05T05:27:36;-0.90;99.90
20858;DHT22;10589;53.636;10.012;2023-04-05T05:30:03;-0.80;99.90
20858;DHT22;10589;53.636;10.012;2023-04-05T05:32:29;-0.80;99.90
20858;DHT22;10589;53.636;10.012;2023-04-05T05:34:54;-0.80;99.90
20858;DHT22;10589;53.636;10.012;2023-04-05T05:37:21;-0.70;99.90
20858;DHT22;10589;53.636;10.012;2023-04-05T05:39:53;-0.60;99.90
20858;DHT22;10589;53.636;10.012;2023-04-05T05:42:19;-0.70;99.90
20858;DHT22;10589;53.636;10.012;2023-04-05T05:44:45;-0.60;99.90
20858;DHT22;10589;53.636;10.012;2023-04-05T05:47:11;-0.60;99.90
20858;DHT22;10589;53.636;10.012;2023-04-05T05:49:36;-0.60;99.90
20858;DHT22;10589;53.636;10.012;2023-04-05T05:52:02;-0.50;99.90
20858;DHT22;10589;53.636;10.012;2023-04-05T05:54:28;-0.40;99.90
20858;DHT22;10589;53.636;10.012;2023-04-05T05:56:54;-0.30;99.90
20858;DHT22;10589;53.636;10.012;2023-04-05T05:59:20;-0.30;99.90
20858;DHT22;10589;53.636;10.012;2023-04-05T06:01:45;-0.40;99.90
20858;DHT22;10589;53.636;10.012;2023-04-05T06:04:12;-0.40;99.90
20858;DHT22;10589;53.636;10.012;2023-04-05T06:06:38;-0.40;99.90
20858;DHT22;10589;53.636;10.012;2023-04-05T06:09:05;-0.30;99.90
20858;DHT22;10589;53.636;10.012;2023-04-05T06:11:30;-0.20;99.90
20858;DHT22;10589;53.636;10.012;2023-04-05T06:13:57;-0.10;99.90
20858;DHT22;10589;53.636;10.012;2023-04-05T06:16:23;0.00;99.90
20858;DHT22;10589;53.636;10.012;2023-04-05T06:18:49;0.10;99.90
20858;DHT22;10589;53.636;10.012;2023-04-05T06:21:17;0.20;99.90
20858;DHT22;10589;53.636;10.012;2023-04-05T06:23:43;0.20;99.90
20858;DHT22;10589;53.636;10.012;2023-04-05T06:26:21;0.30;99.90
20858;DHT22;10589;53.636;10.012;2023-04-05T06:28:52;0.50;99.90
20858;DHT22;10589;53.636;10.012;2023-04-05T06:31:19;0.80;99.90
20858;DHT22;10589;53.636;10.012;2023-04-05T06:33:45;0.90;99.90
20858;DHT22;10589;53.636;10.012;2023-04-05T06:36:11;1.10;99.90
20858;DHT22;10589;53.636;10.012;2023-04-05T06:38:37;1.40;99.90
20858;DHT22;10589;53.636;10.012;2023-04-05T06:41:02;1.70;99.90
20858;DHT22;10589;53.636;10.012;2023-04-05T06:43:29;2.10;99.90
20858;DHT22;10589;53.636;10.012;2023-04-05T06:45:55;2.30;99.90
20858;DHT22;10589;53.636;10.012;2023-04-05T06:48:21;2.60;99.90
20858;DHT22;10589;53.636;10.012;2023-04-05T06:50:56;2.80;99.90
20858;DHT22;10589;53.636;10.012;2023-04-05T06:53:21;2.90;99.90
20858;DHT22;10589;53.636;10.012;2023-04-05T06:55:50;3.00;99.90
20858;DHT22;10589;53.636;10.012;2023-04-05T06:58:16;3.10;99.90
20858;DHT22;10589;53.636;10.012;2023-04-05T07:00:41;3.30;99.90
20858;DHT22;10589;53.636;10.012;2023-04-05T07:03:07;3.50;99.90
20858;DHT22;10589;53.636;10.012;2023-04-05T07:05:32;3.60;99.90
20858;DHT22;10589;53.636;10.012;2023-04-05T07:07:58;3.70;99.90
20858;DHT22;10589;53.636;10.012;2023-04-05T07:10:23;3.90;99.90
20858;DHT22;10589;53.636;10.012;2023-04-05T07:12:49;4.10;99.90
20858;DHT22;10589;53.636;10.012;2023-04-05T07:15:15;4.20;99.90
20858;DHT22;10589;53.636;10.012;2023-04-05T07:17:41;4.30;99.90
20858;DHT22;10589;53.636;10.012;2023-04-05T07:20:06;4.30;99.90
20858;DHT22;10589;53.636;10.012;2023-04-05T07:22:33;4.50;99.90
20858;DHT22;10589;53.636;10.012;2023-04-05T07:24:59;4.50;99.90
20858;DHT22;10589;53.636;10.012;2023-04-05T07:27:25;4.50;99.90
20858;DHT22;10589;53.636;10.012;2023-04-05T07:29:51;4.60;99.90
20858;DHT22;10589;53.636;10.012;2023-04-05T07:32:17;4.70;99.90
20858;DHT22;10589;53.636;10.012;2023-04-05T07:34:42;4.70;99.90
20858;DHT22;10589;53.636;10.012;2023-04-05T07:37:08;4.90;99.90
20858;DHT22;10589;53.636;10.012;2023-04-05T07:39:33;4.80;99.90
20858;DHT22;10589;53.636;10.012;2023-04-05T07:41:59;4.90;99.90
20858;DHT22;10589;53.636;10.012;2023-04-05T07:44:25;4.90;99.90
20858;DHT22;10589;53.636;10.012;2023-04-05T07:46:50;4.90;99.90
20858;DHT22;10589;53.636;10.012;2023-04-05T07:49:16;4.90;99.90
20858;DHT22;10589;53.636;10.012;2023-04-05T07:51:41;5.10;99.90
20858;DHT22;10589;53.636;10.012;2023-04-05T07:54:08;5.20;99.90
20858;DHT22;10589;53.636;10.012;2023-04-05T07:56:36;5.20;99.90
20858;DHT22;10589;53.636;10.012;2023-04-05T07:59:01;5.30;99.90
20858;DHT22;10589;53.636;10.012;2023-04-05T08:01:27;5.30;99.90
20858;DHT22;10589;53.636;10.012;2023-04-05T08:03:53;5.40;99.90
20858;DHT22;10589;53.636;10.012;2023-04-05T08:06:22;5.50;99.90
20858;DHT22;10589;53.636;10.012;2023-04-05T08:08:49;5.50;99.90
20858;DHT22;10589;53.636;10.012;2023-04-05T08:11:14;5.60;99.90
20858;DHT22;10589;53.636;10.012;2023-04-05T08:13:40;5.70;99.90
20858;DHT22;10589;53.636;10.012;2023-04-05T08:16:09;5.70;99.90
20858;DHT22;10589;53.636;10.012;2023-04-05T08:18:35;5.80;99.90
20858;DHT22;10589;53.636;10.012;2023-04-05T08:21:00;5.80;99.90
20858;DHT22;10589;53.636;10.012;2023-04-05T08:23:26;6.00;99.90
20858;DHT22;10589;53.636;10.012;2023-04-05T08:25:52;6.20;99.90
20858;DHT22;10589;53.636;10.012;2023-04-05T08:28:18;6.30;99.90
20858;DHT22;10589;53.636;10.012;2023-04-05T08:30:44;6.40;99.90
20858;DHT22;10589;53.636;10.012;2023-04-05T08:33:11;6.50;99.90
20858;DHT22;10589;53.636;10.012;2023-04-05T08:35:37;6.70;99.90
20858;DHT22;10589;53.636;10.012;2023-04-05T08:38:04;6.80;99.90
20858;DHT22;10589;53.636;10.012;2023-04-05T08:40:39;6.80;99.90
20858;DHT22;10589;53.636;10.012;2023-04-05T08:43:12;6.90;99.90
20858;DHT22;10589;53.636;10.012;2023-04-05T08:45:49;7.00;99.90
20858;DHT22;10589;53.636;10.012;2023-04-05T08:48:16;7.10;99.90
20858;DHT22;10589;53.636;10.012;2023-04-05T08:50:49;7.30;99.90
20858;DHT22;10589;53.636;10.012;2023-04-05T08:53:16;7.40;99.90
20858;DHT22;10589;53.636;10.012;2023-04-05T08:55:41;7.40;99.90
20858;DHT22;10589;53.636;10.012;2023-04-05T08:58:12;7.60;99.90
20858;DHT22;10589;53.636;10.012;2023-04-05T09:00:39;7.60;99.90
20858;DHT22;10589;53.636;10.012;2023-04-05T09:03:06;7.70;99.90
20858;DHT22;10589;53.636;10.012;2023-04-05T09:05:33;7.80;99.90
20858;DHT22;10589;53.636;10.012;2023-04-05T09:08:01;8.00;99.90
20858;DHT22;10589;53.636;10.012;2023-04-05T09:10:28;8.00;99.90
20858;DHT22;10589;53.636;10.012;2023-04-05T09:12:55;8.20;99.90
20858;DHT22;10589;53.636;10.012;2023-04-05T09:15:21;8.30;99.90
20858;DHT22;10589;53.636;10.012;2023-04-05T09:17:49;8.20;99.90
20858;DHT22;10589;53.636;10.012;2023-04-05T09:20:15;8.30;99.90
20858;DHT22;10589;53.636;10.012;2023-04-05T09:22:47;8.30;99.90
20858;DHT22;10589;53.636;10.012;2023-04-05T09:25:38;8.60;99.90
20858;DHT22;10589;53.636;10.012;2023-04-05T09:28:06;8.60;99.90
20858;DHT22;10589;53.636;10.012;2023-04-05T09:30:32;8.90;99.90
20858;DHT22;10589;53.636;10.012;2023-04-05T09:32:59;8.90;99.90
20858;DHT22;10589;53.636;10.012;2023-04-05T09:35:26;8.80;99.90
20858;DHT22;10589;53.636;10.012;2023-04-05T09:40:22;8.90;99.90
20858;DHT22;10589;53.636;10.012;2023-04-05T09:42:48;9.00;99.90
20858;DHT22;10589;53.636;10.012;2023-04-05T09:45:15;8.90;99.90
20858;DHT22;10589;53.636;10.012;2023-04-05T09:47:40;9.00;99.90
20858;DHT22;10589;53.636;10.012;2023-04-05T09:50:18;9.10;99.90
20858;DHT22;10589;53.636;10.012;2023-04-05T09:52:44;9.10;99.90
20858;DHT22;10589;53.636;10.012;2023-04-05T09:55:10;9.10;99.90
20858;DHT22;10589;53.636;10.012;2023-04-05T09:57:37;9.30;99.90
20858;DHT22;10589;53.636;10.012;2023-04-05T10:00:04;9.50;99.90
20858;DHT22;10589;53.636;10.012;2023-04-05T10:02:35;9.60;99.90
20858;DHT22;10589;53.636;10.012;2023-04-05T10:05:05;9.80;99.90
20858;DHT22;10589;53.636;10.012;2023-04-05T10:07:31;9.90;99.90
20858;DHT22;10589;53.636;10.012;2023-04-05T10:09:58;10.00;99.90
20858;DHT22;10589;53.636;10.012;2023-04-05T10:12:25;10.00;99.90
20858;DHT22;10589;53.636;10.012;2023-04-05T10:14:56;10.30;99.90
20858;DHT22;10589;53.636;10.012;2023-04-05T10:17:36;10.20;99.90
20858;DHT22;10589;53.636;10.012;2023-04-05T10:24:59;10.50;99.90
20858;DHT22;10589;53.636;10.012;2023-04-05T10:27:47;10.80;99.90
20858;DHT22;10589;53.636;10.012;2023-04-05T10:30:17;11.00;99.90
20858;DHT22;10589;53.636;10.012;2023-04-05T10:38:28;11.30;99.90
20858;DHT22;10589;53.636;10.012;2023-04-05T10:41:08;11.10;99.90
20858;DHT22;10589;53.636;10.012;2023-04-05T10:43:36;11.00;99.90
20858;DHT22;10589;53.636;10.012;2023-04-05T10:46:05;10.80;99.90
20858;DHT22;10589;53.636;10.012;2023-04-05T10:48:58;10.80;99.90
20858;DHT22;10589;53.636;10.012;2023-04-05T10:51:25;10.50;99.90
20858;DHT22;10589;53.636;10.012;2023-04-05T10:53:53;10.60;99.90
20858;DHT22;10589;53.636;10.012;2023-04-05T10:56:20;10.60;99.90
20858;DHT22;10589;53.636;10.012;2023-04-05T10:58:49;10.50;99.90
20858;DHT22;10589;53.636;10.012;2023-04-05T11:01:16;10.60;99.90
20858;DHT22;10589;53.636;10.012;2023-04-05T11:03:50;10.70;99.90
20858;DHT22;10589;53.636;10.012;2023-04-05T11:08:47;11.00;99.90
20858;DHT22;10589;53.636;10.012;2023-04-05T11:11:17;11.20;99.90
20858;DHT22;10589;53.636;10.012;2023-04-05T11:13:54;11.10;99.90
20858;DHT22;10589;53.636;10.012;2023-04-05T11:16:21;10.80;99.90
20858;DHT22;10589;53.636;10.012;2023-04-05T11:18:49;10.80;99.90
20858;DHT22;10589;53.636;10.012;2023-04-05T11:21:22;10.40;99.90
20858;DHT22;10589;53.636;10.012;2023-04-05T11:24:02;10.50;99.90
20858;DHT22;10589;53.636;10.012;2023-04-05T11:29:04;11.00;99.90
20858;DHT22;10589;53.636;10.012;2023-04-05T11:31:29;11.30;99.90
20858;DHT22;10589;53.636;10.012;2023-04-05T11:34:05;11.50;99.90
20858;DHT22;10589;53.636;10.012;2023-04-05T11:36:43;11.30;99.90
20858;DHT22;10589;53.636;10.012;2023-04-05T11:42:03;11.80;99.90
20858;DHT22;10589;53.636;10.012;2023-04-05T11:47:05;12.20;99.90
20858;DHT22;10589;53.636;10.012;2023-04-05T11:49:32;11.90;99.90
20858;DHT22;10589;53.636;10.012;2023-04-05T11:52:03;11.90;99.90
20858;DHT22;10589;53.636;10.012;2023-04-05T11:54:34;11.80;99.90
20858;DHT22;10589;53.636;10.012;2023-04-05T11:57:00;11.60;99.90
20858;DHT22;10589;53.636;10.012;2023-04-05T11:59:30;11.50;99.90
20858;DHT22;10589;53.636;10.012;2023-04-05T12:01:58;11.30;99.90
20858;DHT22;10589;53.636;10.012;2023-04-05T12:04:24;11.10;99.90
20858;DHT22;10589;53.636;10.012;2023-04-05T12:07:10;11.00;99.90
20858;DHT22;10589;53.636;10.012;2023-04-05T12:09:54;10.60;99.90
20858;DHT22;10589;53.636;10.012;2023-04-05T12:12:20;10.50;99.90
20858;DHT22;10589;53.636;10.012;2023-04-05T12:14:46;10.30;99.90
20858;DHT22;10589;53.636;10.012;2023-04-05T12:17:11;10.20;99.90
20858;DHT22;10589;53.636;10.012;2023-04-05T12:19:37;9.80;99.90
20858;DHT22;10589;53.636;10.012;2023-04-05T12:22:02;9.80;99.90
20858;DHT22;10589;53.636;10.012;2023-04-05T12:24:28;10.00;99.90
20858;DHT22;10589;53.636;10.012;2023-04-05T12:26:54;10.20;99.90
20858;DHT22;10589;53.636;10.012;2023-04-05T12:29:20;10.60;99.90
20858;DHT22;10589;53.636;10.012;2023-04-05T12:31:45;10.60;99.90
20858;DHT22;10589;53.636;10.012;2023-04-05T12:34:13;10.60;99.90
20858;DHT22;10589;53.636;10.012;2023-04-05T12:36:43;10.90;99.90
20858;DHT22;10589;53.636;10.012;2023-04-05T12:39:09;11.20;99.90
20858;DHT22;10589;53.636;10.012;2023-04-05T12:41:35;11.30;99.90
20858;DHT22;10589;53.636;10.012;2023-04-05T12:44:28;11.40;99.90
20858;DHT22;10589;53.636;10.012;2023-04-05T12:46:59;11.80;99.90
20858;DHT22;10589;53.636;10.012;2023-04-05T12:49:27;12.40;99.90
20858;DHT22;10589;53.636;10.012;2023-04-05T12:51:53;12.30;99.90
20858;DHT22;10589;53.636;10.012;2023-04-05T12:54:22;12.10;99.90
20858;DHT22;10589;53.636;10.012;2023-04-05T12:56:52;12.00;99.90
20858;DHT22;10589;53.636;10.012;2023-04-05T12:59:19;12.60;99.90
20858;DHT22;10589;53.636;10.012;2023-04-05T13:01:45;12.80;99.90
20858;DHT22;10589;53.636;10.012;2023-04-05T13:04:10;12.90;99.90
20858;DHT22;10589;53.636;10.012;2023-04-05T13:06:36;12.90;99.90
20858;DHT22;10589;53.636;10.012;2023-04-05T13:09:02;13.10;99.90
20858;DHT22;10589;53.636;10.012;2023-04-05T13:11:27;12.90;99.90
20858;DHT22;10589;53.636;10.012;2023-04-05T13:13:53;13.30;99.90
20858;DHT22;10589;53.636;10.012;2023-04-05T13:16:18;13.40;99.90
20858;DHT22;10589;53.636;10.012;2023-04-05T13:18:44;12.50;99.90
20858;DHT22;10589;53.636;10.012;2023-04-05T13:21:10;12.30;99.90
20858;DHT22;10589;53.636;10.012;2023-04-05T13:23:37;11.90;99.90
20858;DHT22;10589;53.636;10.012;2023-04-05T13:26:03;11.80;99.90
20858;DHT22;10589;53.636;10.012;2023-04-05T13:28:29;11.80;99.90
20858;DHT22;10589;53.636;10.012;2023-04-05T13:30:55;11.60;99.90
20858;DHT22;10589;53.636;10.012;2023-04-05T13:33:21;11.40;99.90
20858;DHT22;10589;53.636;10.012;2023-04-05T13:35:47;11.10;99.90
20858;DHT22;10589;53.636;10.012;2023-04-05T13:38:12;10.90;99.90
20858;DHT22;10589;53.636;10.012;2023-04-05T13:40:38;10.70;99.90
20858;DHT22;10589;53.636;10.012;2023-04-05T13:43:04;10.30;99.90
20858;DHT22;10589;53.636;10.012;2023-04-05T13:45:30;10.40;99.90
20858;DHT22;10589;53.636;10.012;2023-04-05T13:47:58;10.40;99.90
20858;DHT22;10589;53.636;10.012;2023-04-05T13:50:24;10.50;99.90
20858;DHT22;10589;53.636;10.012;2023-04-05T13:52:50;10.50;99.90
20858;DHT22;10589;53.636;10.012;2023-04-05T13:55:16;10.50;99.90
20858;DHT22;10589;53.636;10.012;2023-04-05T13:57:42;10.60;99.90
20858;DHT22;10589;53.636;10.012;2023-04-05T14:00:08;10.70;99.90
20858;DHT22;10589;53.636;10.012;2023-04-05T14:02:34;10.60;99.90
20858;DHT22;10589;53.636;10.012;2023-04-05T14:05:00;10.60;99.90
20858;DHT22;10589;53.636;10.012;2023-04-05T14:07:26;10.70;99.90
20858;DHT22;10589;53.636;10.012;2023-04-05T14:09:52;10.80;99.90
20858;DHT22;10589;53.636;10.012;2023-04-05T14:12:18;10.70;99.90
20858;DHT22;10589;53.636;10.012;2023-04-05T14:14:43;10.90;99.90
20858;DHT22;10589;53.636;10.012;2023-04-05T14:17:09;10.90;99.90
20858;DHT22;10589;53.636;10.012;2023-04-05T14:19:37;11.20;99.90
20858;DHT22;10589;53.636;10.012;2023-04-05T14:22:02;11.20;99.90
20858;DHT22;10589;53.636;10.012;2023-04-05T14:24:28;11.10;99.90
20858;DHT22;10589;53.636;10.012;2023-04-05T14:26:54;11.30;99.90
20858;DHT22;10589;53.636;10.012;2023-04-05T14:29:21;11.50;99.90
20858;DHT22;10589;53.636;10.012;2023-04-05T14:31:47;11.80;99.90
20858;DHT22;10589;53.636;10.012;2023-04-05T14:34:13;12.30;99.90
20858;DHT22;10589;53.636;10.012;2023-04-05T14:36:39;13.00;99.90
20858;DHT22;10589;53.636;10.012;2023-04-05T14:39:05;14.40;99.90
20858;DHT22;10589;53.636;10.012;2023-04-05T14:41:30;14.60;99.90
20858;DHT22;10589;53.636;10.012;2023-04-05T14:43:56;14.60;99.90
20858;DHT22;10589;53.636;10.012;2023-04-05T14:46:22;15.00;99.90
20858;DHT22;10589;53.636;10.012;2023-04-05T14:48:47;15.20;99.90
20858;DHT22;10589;53.636;10.012;2023-04-05T14:51:13;14.90;99.90
20858;DHT22;10589;53.636;10.012;2023-04-05T14:53:39;14.60;99.90
20858;DHT22;10589;53.636;10.012;2023-04-05T14:56:06;14.50;99.90
20858;DHT22;10589;53.636;10.012;2023-04-05T14:58:34;15.30;99.90
20858;DHT22;10589;53.636;10.012;2023-04-05T15:01:00;16.60;99.90
20858;DHT22;10589;53.636;10.012;2023-04-05T15:03:25;16.50;99.90
20858;DHT22;10589;53.636;10.012;2023-04-05T15:05:51;16.60;99.90
20858;DHT22;10589;53.636;10.012;2023-04-05T15:08:17;16.20;99.90
20858;DHT22;10589;53.636;10.012;2023-04-05T15:10:43;15.60;99.90
20858;DHT22;10589;53.636;10.012;2023-04-05T15:13:10;15.40;99.90
20858;DHT22;10589;53.636;10.012;2023-04-05T15:15:37;14.20;99.90
20858;DHT22;10589;53.636;10.012;2023-04-05T15:18:03;13.70;99.90
20858;DHT22;10589;53.636;10.012;2023-04-05T15:20:29;13.30;99.90
20858;DHT22;10589;53.636;10.012;2023-04-05T15:22:55;13.30;99.90
20858;DHT22;10589;53.636;10.012;2023-04-05T15:25:21;13.50;99.90
20858;DHT22;10589;53.636;10.012;2023-04-05T15:27:46;13.70;99.90
20858;DHT22;10589;53.636;10.012;2023-04-05T15:30:13;13.60;99.90
20858;DHT22;10589;53.636;10.012;2023-04-05T15:32:38;13.40;99.90
20858;DHT22;10589;53.636;10.012;2023-04-05T15:35:05;13.00;99.90
20858;DHT22;10589;53.636;10.012;2023-04-05T15:37:31;12.60;99.90
20858;DHT22;10589;53.636;10.012;2023-04-05T15:39:56;12.30;99.90
20858;DHT22;10589;53.636;10.012;2023-04-05T15:42:22;11.90;99.90
20858;DHT22;10589;53.636;10.012;2023-04-05T15:44:49;11.70;99.90
20858;DHT22;10589;53.636;10.012;2023-04-05T15:47:15;11.40;99.90
20858;DHT22;10589;53.636;10.012;2023-04-05T15:49:41;11.20;99.90
20858;DHT22;10589;53.636;10.012;2023-04-05T15:52:08;10.90;99.90
20858;DHT22;10589;53.636;10.012;2023-04-05T15:54:35;10.60;99.90
20858;DHT22;10589;53.636;10.012;2023-04-05T15:57:00;10.50;99.90
20858;DHT22;10589;53.636;10.012;2023-04-05T15:59:26;10.40;99.90
20858;DHT22;10589;53.636;10.012;2023-04-05T16:01:52;10.40;99.90
20858;DHT22;10589;53.636;10.012;2023-04-05T16:04:18;10.40;99.90
20858;DHT22;10589;53.636;10.012;2023-04-05T16:06:44;10.30;99.90
20858;DHT22;10589;53.636;10.012;2023-04-05T16:09:09;10.30;99.90
20858;DHT22;10589;53.636;10.012;2023-04-05T16:11:35;10.20;99.90
20858;DHT22;10589;53.636;10.012;2023-04-05T16:14:02;10.10;99.90
20858;DHT22;10589;53.636;10.012;2023-04-05T16:16:27;9.90;99.90
20858;DHT22;10589;53.636;10.012;2023-04-05T16:18:53;9.90;99.90
20858;DHT22;10589;53.636;10.012;2023-04-05T16:21:19;9.90;99.90
20858;DHT22;10589;53.636;10.012;2023-04-05T16:23:44;9.90;99.90
20858;DHT22;10589;53.636;10.012;2023-04-05T16:26:11;9.90;99.90
20858;DHT22;10589;53.636;10.012;2023-04-05T16:28:38;10.00;99.90
20858;DHT22;10589;53.636;10.012;2023-04-05T16:31:03;10.80;99.90
20858;DHT22;10589;53.636;10.012;2023-04-05T16:33:29;12.30;99.90
20858;DHT22;10589;53.636;10.012;2023-04-05T16:35:55;14.20;99.90
20858;DHT22;10589;53.636;10.012;2023-04-05T16:38:21;15.80;99.90
20858;DHT22;10589;53.636;10.012;2023-04-05T16:40:46;16.40;99.90
20858;DHT22;10589;53.636;10.012;2023-04-05T16:43:12;16.50;99.90
20858;DHT22;10589;53.636;10.012;2023-04-05T16:45:37;16.70;99.90
20858;DHT22;10589;53.636;10.012;2023-04-05T16:48:04;16.00;99.90
20858;DHT22;10589;53.636;10.012;2023-04-05T16:50:29;15.80;99.90
20858;DHT22;10589;53.636;10.012;2023-04-05T16:52:55;15.10;99.90
20858;DHT22;10589;53.636;10.012;2023-04-05T16:55:21;15.60;99.90
20858;DHT22;10589;53.636;10.012;2023-04-05T16:57:46;14.70;99.90
20858;DHT22;10589;53.636;10.012;2023-04-05T17:00:12;14.50;99.90
20858;DHT22;10589;53.636;10.012;2023-04-05T17:02:38;14.10;99.90
20858;DHT22;10589;53.636;10.012;2023-04-05T17:05:04;13.40;99.90
20858;DHT22;10589;53.636;10.012;2023-04-05T17:07:30;12.30;99.90
20858;DHT22;10589;53.636;10.012;2023-04-05T17:09:56;11.60;99.90
20858;DHT22;10589;53.636;10.012;2023-04-05T17:12:23;11.00;99.90
20858;DHT22;10589;53.636;10.012;2023-04-05T17:14:48;10.80;99.90
20858;DHT22;10589;53.636;10.012;2023-04-05T17:17:14;10.10;99.90
20858;DHT22;10589;53.636;10.012;2023-04-05T17:19:40;9.80;99.90
20858;DHT22;10589;53.636;10.012;2023-04-05T17:22:06;9.60;99.90
20858;DHT22;10589;53.636;10.012;2023-04-05T17:24:36;9.40;99.90
20858;DHT22;10589;53.636;10.012;2023-04-05T17:27:02;9.10;99.90
20858;DHT22;10589;53.636;10.012;2023-04-05T17:29:28;9.00;99.90
20858;DHT22;10589;53.636;10.012;2023-04-05T17:31:54;8.90;99.90
20858;DHT22;10589;53.636;10.012;2023-04-05T17:34:21;8.90;99.90
20858;DHT22;10589;53.636;10.012;2023-04-05T17:36:46;8.90;99.90
20858;DHT22;10589;53.636;10.012;2023-04-05T17:39:13;8.70;99.90
20858;DHT22;10589;53.636;10.012;2023-04-05T17:41:39;8.60;99.90
20858;DHT22;10589;53.636;10.012;2023-04-05T17:44:05;8.60;99.90
20858;DHT22;10589;53.636;10.012;2023-04-05T17:46:31;8.50;99.90
20858;DHT22;10589;53.636;10.012;2023-04-05T17:48:57;8.40;99.90
20858;DHT22;10589;53.636;10.012;2023-04-05T17:51:22;8.50;99.90
20858;DHT22;10589;53.636;10.012;2023-04-05T17:53:48;8.40;99.90
20858;DHT22;10589;53.636;10.012;2023-04-05T17:56:14;8.40;99.90
20858;DHT22;10589;53.636;10.012;2023-04-05T17:58:40;8.30;99.90
20858;DHT22;10589;53.636;10.012;2023-04-05T18:01:10;8.30;99.90
20858;DHT22;10589;53.636;10.012;2023-04-05T18:03:36;8.20;99.90
20858;DHT22;10589;53.636;10.012;2023-04-05T18:06:01;8.10;99.90
20858;DHT22;10589;53.636;10.012;2023-04-05T18:08:27;8.00;99.90
20858;DHT22;10589;53.636;10.012;2023-04-05T18:10:57;8.00;99.90
20858;DHT22;10589;53.636;10.012;2023-04-05T18:13:24;7.90;99.90
20858;DHT22;10589;53.636;10.012;2023-04-05T18:15:54;7.80;99.90
20858;DHT22;10589;53.636;10.012;2023-04-05T18:18:21;7.80;99.90
20858;DHT22;10589;53.636;10.012;2023-04-05T18:20:53;7.80;99.90
20858;DHT22;10589;53.636;10.012;2023-04-05T18:23:20;7.70;99.90
20858;DHT22;10589;53.636;10.012;2023-04-05T18:25:50;7.60;99.90
20858;DHT22;10589;53.636;10.012;2023-04-05T18:28:18;7.60;99.90
20858;DHT22;10589;53.636;10.012;2023-04-05T18:30:45;7.50;99.90
20858;DHT22;10589;53.636;10.012;2023-04-05T18:33:10;7.50;99.90
20858;DHT22;10589;53.636;10.012;2023-04-05T18:35:36;7.30;99.90
20858;DHT22;10589;53.636;10.012;2023-04-05T18:38:02;7.30;99.90
20858;DHT22;10589;53.636;10.012;2023-04-05T18:40:30;7.20;99.90
20858;DHT22;10589;53.636;10.012;2023-04-05T18:42:56;7.10;99.90
20858;DHT22;10589;53.636;10.012;2023-04-05T18:45:22;7.00;99.90
20858;DHT22;10589;53.636;10.012;2023-04-05T18:47:48;6.90;99.90
20858;DHT22;10589;53.636;10.012;2023-04-05T18:50:15;6.80;99.90
20858;DHT22;10589;53.636;10.012;2023-04-05T18:52:42;6.70;99.90
20858;DHT22;10589;53.636;10.012;2023-04-05T18:55:08;6.60;99.90
20858;DHT22;10589;53.636;10.012;2023-04-05T18:57:33;6.40;99.90
20858;DHT22;10589;53.636;10.012;2023-04-05T19:00:03;6.30;99.90
20858;DHT22;10589;53.636;10.012;2023-04-05T19:02:29;6.20;99.90
20858;DHT22;10589;53.636;10.012;2023-04-05T19:04:55;6.00;99.90
20858;DHT22;10589;53.636;10.012;2023-04-05T19:07:20;5.90;99.90
20858;DHT22;10589;53.636;10.012;2023-04-05T19:09:46;5.80;99.90
20858;DHT22;10589;53.636;10.012;2023-04-05T19:12:13;5.80;99.90
20858;DHT22;10589;53.636;10.012;2023-04-05T19:14:39;5.70;99.90
20858;DHT22;10589;53.636;10.012;2023-04-05T19:17:07;5.60;99.90
20858;DHT22;10589;53.636;10.012;2023-04-05T19:19:32;5.50;99.90
20858;DHT22;10589;53.636;10.012;2023-04-05T19:21:58;5.40;99.90
20858;DHT22;10589;53.636;10.012;2023-04-05T19:24:25;5.30;99.90
20858;DHT22;10589;53.636;10.012;2023-04-05T19:26:50;5.20;99.90
20858;DHT22;10589;53.636;10.012;2023-04-05T19:29:16;5.20;99.90
20858;DHT22;10589;53.636;10.012;2023-04-05T19:31:42;5.20;99.90